Time;durP1;ratioP1;P1;durP2;ratioP2;P2;SDS_P1;SDS_P2;PMS_P1;PMS_P2;Temp;Humidity;BMP_temperature;BMP_pressure;BME280_temperature;BME280_humidity;BME280_pressure;Samples;Min_cycle;Max_cycle;Signal;HPM_P1;HPM_P2
2022/04/25 00:00:38;;;;;;;49.67;14.60;;;;;;;16.37;55.79;94285.03;5012390;28;20048;-77
2022/04/25 00:03:07;;;;;;;42.95;11.05;;;;;;;16.32;56.11;94281.69;5011962;28;20053;-77
2022/04/25 00:05:32;;;;;;;37.00;7.60;;;;;;;16.26;55.14;94280.94;5011710;28;20118;-77
2022/04/25 00:07:58;;;;;;;43.25;7.38;;;;;;;16.25;54.91;94278.59;5012936;28;20030;-77
2022/04/25 00:10:23;;;;;;;41.50;8.57;;;;;;;16.25;54.29;94286.47;5011674;28;20037;-77
2022/04/25 00:12:48;;;;;;;32.65;10.18;;;;;;;16.25;55.35;94283.84;5012155;28;20037;-77
2022/04/25 00:15:14;;;;;;;48.10;13.23;;;;;;;16.20;56.05;94293.34;5012092;28;20690;-77
2022/04/25 00:17:40;;;;;;;50.40;11.00;;;;;;;16.14;56.15;94288.44;5011413;28;20034;-77
2022/04/25 00:20:15;;;;;;;43.75;8.90;;;;;;;16.12;55.53;94290.56;5012112;28;20037;-77
2022/04/25 00:22:40;;;;;;;53.13;12.38;;;;;;;16.10;55.83;94293.44;4997716;28;20042;-77
2022/04/25 00:25:06;;;;;;;74.65;20.88;;;;;;;16.04;56.59;94289.31;5012322;28;20041;-77
2022/04/25 00:27:32;;;;;;;56.65;16.08;;;;;;;15.96;56.80;94292.56;5012555;28;20029;-77
2022/04/25 00:29:57;;;;;;;57.40;12.20;;;;;;;15.91;56.86;94285.50;5002712;28;20494;-77
2022/04/25 00:32:23;;;;;;;30.45;8.95;;;;;;;15.85;56.53;94289.25;4986533;28;20387;-77
2022/04/25 00:34:49;;;;;;;32.40;7.82;;;;;;;15.81;56.73;94280.38;5001461;28;20509;-77
2022/04/25 00:37:14;;;;;;;41.08;8.27;;;;;;;15.81;56.03;94288.25;4986761;28;20081;-77
2022/04/25 00:39:46;;;;;;;34.70;7.95;;;;;;;15.80;56.55;94285.91;5011988;28;20096;-77
2022/04/25 00:42:11;;;;;;;35.25;7.50;;;;;;;15.75;56.43;94281.47;4987082;28;20026;-77
2022/04/25 00:44:37;;;;;;;50.15;8.95;;;;;;;15.73;56.34;94277.56;5011917;28;20029;-77
2022/04/25 00:47:03;;;;;;;40.80;9.15;;;;;;;15.73;56.69;94283.59;5011792;28;20045;-77
2022/04/25 00:49:28;;;;;;;41.72;10.48;;;;;;;15.70;57.02;94280.75;5002173;28;20061;-77
2022/04/25 00:51:57;;;;;;;44.90;10.95;;;;;;;15.67;56.98;94278.69;5012035;28;20571;-77
2022/04/25 00:54:23;;;;;;;41.17;11.57;;;;;;;15.61;56.70;94275.31;4985173;28;20196;-77
2022/04/25 00:56:49;;;;;;;34.70;9.45;;;;;;;15.59;57.44;94267.72;5011690;28;20496;-77
2022/04/25 00:59:18;;;;;;;33.70;8.73;;;;;;;15.58;57.08;94263.50;5001691;28;20068;-77
2022/04/25 01:01:44;;;;;;;34.17;8.63;;;;;;;15.51;56.70;94255.19;5001509;28;20045;-77
2022/04/25 01:04:10;;;;;;;22.70;7.63;;;;;;;15.55;56.57;94250.97;5002306;28;20034;-77
2022/04/25 01:06:35;;;;;;;34.90;10.80;;;;;;;15.54;56.79;94249.41;5002154;28;20030;-77
2022/04/25 01:09:01;;;;;;;51.15;13.35;;;;;;;15.56;57.57;94246.50;5011351;28;20413;-77
2022/04/25 01:11:26;;;;;;;41.63;8.23;;;;;;;15.59;56.45;94246.75;4985964;28;20417;-77
2022/04/25 01:13:52;;;;;;;39.72;8.25;;;;;;;15.60;56.50;94237.84;4985778;28;20038;-78
2022/04/25 01:16:26;;;;;;;31.20;8.40;;;;;;;15.61;56.74;94239.38;5001967;28;20041;-77
2022/04/25 01:18:52;;;;;;;37.92;8.52;;;;;;;15.65;56.78;94233.63;5026936;28;20121;-77
2022/04/25 01:21:17;;;;;;;36.63;7.88;;;;;;;15.69;56.29;94234.63;5011869;28;20041;-77
2022/04/25 01:29:11;;;;;;;61.60;15.70;;;;;;;15.71;57.32;94229.88;5011407;28;20100;-77
2022/04/25 01:31:37;;;;;;;29.55;7.97;;;;;;;15.72;56.44;94223.56;5001809;28;20413;-77
2022/04/25 01:34:03;;;;;;;35.35;9.85;;;;;;;15.72;56.41;94215.72;4999947;28;20053;-77
2022/04/25 01:36:28;;;;;;;70.38;18.65;;;;;;;15.71;57.11;94220.19;5001521;28;20456;-77
2022/04/25 01:38:54;;;;;;;62.10;18.40;;;;;;;15.68;57.23;94217.34;5010979;28;20037;-77
2022/04/25 01:41:19;;;;;;;52.30;14.10;;;;;;;15.64;57.66;94224.19;4984952;28;20061;-77
2022/04/25 01:43:45;;;;;;;62.05;16.73;;;;;;;15.59;57.39;94220.53;5001493;28;20406;-77
2022/04/25 01:46:10;;;;;;;60.15;15.98;;;;;;;15.55;57.75;94223.97;5001869;28;20045;-77
2022/04/25 01:48:36;;;;;;;67.80;20.00;;;;;;;15.47;57.59;94225.38;5001170;28;20034;-77
2022/04/25 01:51:01;;;;;;;55.67;18.38;;;;;;;15.41;57.71;94234.31;5011068;28;20034;-77
2022/04/25 01:53:27;;;;;;;45.45;13.90;;;;;;;15.35;57.74;94224.94;5011030;28;20045;-77
2022/04/25 01:55:53;;;;;;;44.05;12.00;;;;;;;15.29;57.68;94215.56;4985065;28;20037;-77
2022/04/25 01:58:19;;;;;;;51.63;12.43;;;;;;;15.22;58.31;94209.84;4985318;28;20053;-78
2022/04/25 02:00:45;;;;;;;57.72;12.50;;;;;;;15.19;58.22;94205.19;5011227;28;20114;-77
2022/04/25 02:03:16;;;;;;;37.15;11.55;;;;;;;15.12;58.24;94188.97;5010965;28;20034;-77
2022/04/25 02:05:42;;;;;;;41.22;11.48;;;;;;;15.09;58.65;94197.41;4984372;28;20061;-77
2022/04/25 02:08:07;;;;;;;43.58;11.27;;;;;;;15.06;58.90;94195.31;5010539;28;20399;-77
2022/04/25 02:10:33;;;;;;;50.10;13.50;;;;;;;15.02;58.96;94198.50;5010604;28;20057;-77
2022/04/25 02:12:58;;;;;;;47.50;15.82;;;;;;;14.99;58.94;94200.88;4984977;28;20033;-77
2022/04/25 02:15:23;;;;;;;52.15;13.07;;;;;;;14.98;58.76;94207.19;5000152;28;20041;-77
2022/04/25 02:17:49;;;;;;;49.95;15.80;;;;;;;14.89;59.43;94206.97;5010544;28;20045;-77
2022/04/25 02:20:14;;;;;;;52.95;15.43;;;;;;;14.86;59.00;94214.59;5000877;28;20042;-77
2022/04/25 02:22:40;;;;;;;59.72;17.15;;;;;;;14.79;59.61;94211.47;5000461;28;20080;-77
2022/04/25 02:25:06;;;;;;;38.80;16.48;;;;;;;14.77;59.92;94203.91;5000816;28;20038;-77
2022/04/25 02:27:32;;;;;;;40.35;8.68;;;;;;;14.76;59.43;94201.56;5010994;28;20041;-77
2022/04/25 02:29:58;;;;;;;56.63;16.08;;;;;;;14.77;59.60;94206.53;5001263;28;20402;-77
2022/04/25 02:32:30;;;;;;;61.05;25.88;;;;;;;14.73;59.54;94208.13;4985634;28;20091;-77
2022/04/25 02:34:55;;;;;;;50.08;21.92;;;;;;;14.65;59.65;94211.34;5001040;28;20050;-77
2022/04/25 02:37:21;;;;;;;56.10;21.77;;;;;;;14.57;59.54;94210.06;4999831;28;20048;-76
2022/04/25 02:39:46;;;;;;;51.65;17.77;;;;;;;14.56;60.12;94203.25;5000487;28;20029;-76
2022/04/25 02:42:12;;;;;;;49.20;17.85;;;;;;;14.55;59.68;94206.16;5000366;28;20428;-76
2022/04/25 02:44:38;;;;;;;39.53;14.75;;;;;;;14.47;60.01;94194.41;5010076;28;20052;-76
2022/04/25 02:47:03;;;;;;;43.85;15.70;;;;;;;14.42;60.35;94191.81;4984290;28;20504;-77
2022/04/25 02:49:29;;;;;;;65.05;16.65;;;;;;;14.41;60.61;94177.16;5010055;28;20038;-77
2022/04/25 02:51:54;;;;;;;39.95;13.18;;;;;;;14.34;60.50;94164.41;5011305;28;20050;-77
2022/04/25 02:54:20;;;;;;;39.08;10.93;;;;;;;14.32;61.28;94169.13;4984019;28;20041;-77
2022/04/25 02:56:45;;;;;;;37.55;10.93;;;;;;;14.33;61.22;94173.28;5009761;28;20033;-78
2022/04/25 02:59:11;;;;;;;36.97;9.77;;;;;;;14.32;61.83;94170.94;5000091;28;20044;-77
2022/04/25 03:01:36;;;;;;;38.13;10.98;;;;;;;14.32;61.49;94166.50;5000445;28;20444;-77
2022/04/25 03:04:02;;;;;;;27.10;8.18;;;;;;;14.29;61.67;94167.03;4991780;28;20169;-77
2022/04/25 03:06:34;;;;;;;60.78;8.80;;;;;;;14.27;61.46;94178.81;4999751;28;20037;-77
2022/04/25 03:09:01;;;;;;;50.30;9.95;;;;;;;14.23;61.87;94181.19;4999172;28;20042;-77
2022/04/25 03:11:39;;;;;;;39.75;12.13;;;;;;;14.21;61.76;94177.28;5009606;28;20034;-76
2022/04/25 03:14:05;;;;;;;33.25;10.45;;;;;;;14.19;61.99;94176.75;4983939;28;20046;-77
2022/04/25 03:16:40;;;;;;;40.67;11.32;;;;;;;14.18;61.91;94175.97;5009621;28;20034;-77
2022/04/25 03:19:05;;;;;;;51.55;16.55;;;;;;;14.16;61.83;94178.09;4985158;28;20048;-77
2022/04/25 03:21:30;;;;;;;60.90;15.05;;;;;;;14.09;62.17;94185.44;5009641;28;20034;-77
2022/04/25 03:23:56;;;;;;;49.83;16.23;;;;;;;14.06;62.28;94189.38;5009750;28;20057;-77
2022/04/25 03:26:22;;;;;;;42.35;13.40;;;;;;;14.01;62.21;94180.78;4999821;28;20029;-77
2022/04/25 03:28:47;;;;;;;39.67;14.65;;;;;;;14.01;61.81;94186.78;4983739;28;20034;-77
2022/04/25 03:31:13;;;;;;;49.72;16.95;;;;;;;14.03;61.78;94179.44;5009676;28;20108;-77
2022/04/25 03:33:38;;;;;;;47.30;16.15;;;;;;;14.00;61.16;94194.91;5009477;28;20038;-77
2022/04/25 03:36:04;;;;;;;57.97;16.08;;;;;;;13.98;61.27;94196.97;5015067;28;20052;-77
2022/04/25 03:38:30;;;;;;;53.65;14.98;;;;;;;13.96;61.54;94209.53;4999719;28;20033;-77
2022/04/25 03:40:55;;;;;;;49.50;14.02;;;;;;;13.91;61.33;94209.56;4999834;28;20030;-77
2022/04/25 03:43:23;;;;;;;30.55;14.65;;;;;;;13.85;61.96;94216.63;4999499;28;20034;-77
2022/04/25 03:45:49;;;;;;;33.42;9.10;;;;;;;13.89;61.99;94214.25;4998853;28;20041;-77
2022/04/25 03:48:14;;;;;;;47.80;11.27;;;;;;;13.95;61.36;94216.59;4999503;28;20034;-77
2022/04/25 03:50:40;;;;;;;41.78;11.90;;;;;;;13.99;61.35;94219.44;4999527;28;20034;-78
2022/04/25 03:53:10;;;;;;;54.35;9.98;;;;;;;13.97;61.99;94211.88;4999973;28;20045;-79
2022/04/25 03:58:19;;;;;;;34.80;9.48;;;;;;;14.17;61.38;94220.72;5010720;28;20697;-79
2022/04/25 04:00:44;;;;;;;40.53;10.80;;;;;;;14.30;61.19;94214.88;5011491;28;20030;-79
2022/04/25 04:03:12;;;;;;;45.05;10.45;;;;;;;14.45;60.04;94216.66;5011678;28;20030;-78
2022/04/25 04:05:46;;;;;;;32.45;8.00;;;;;;;14.52;59.64;94211.94;5001393;28;21004;-78
2022/04/25 04:08:24;;;;;;;37.63;8.18;;;;;;;14.66;58.87;94229.38;4989838;28;20053;-78
2022/04/25 04:10:50;;;;;;;27.73;8.48;;;;;;;14.77;58.60;94230.06;5000060;28;20050;-78
2022/04/25 04:13:15;;;;;;;31.83;7.03;;;;;;;14.93;58.37;94234.16;5011127;28;20041;-78
2022/04/25 04:15:41;;;;;;;33.78;7.32;;;;;;;15.14;57.40;94231.41;5001135;28;20045;-78
2022/04/25 04:18:06;;;;;;;43.60;10.15;;;;;;;15.39;57.03;94222.56;5001207;28;20029;-78
2022/04/25 04:20:32;;;;;;;33.88;8.15;;;;;;;15.67;56.29;94232.28;4984952;28;20581;-78
2022/04/25 04:22:58;;;;;;;52.65;8.65;;;;;;;16.02;55.32;94233.75;5009637;28;20026;-78
2022/04/25 04:25:23;;;;;;;46.70;8.25;;;;;;;16.36;54.75;94232.81;5011361;28;20045;-78
2022/04/25 04:27:49;;;;;;;39.92;11.35;;;;;;;16.69;53.62;94229.28;5011371;28;20034;-78
2022/04/25 04:30:15;;;;;;;50.70;9.10;;;;;;;17.12;52.32;94231.03;5011928;28;20501;-78
2022/04/25 04:32:41;;;;;;;61.50;10.55;;;;;;;17.57;50.99;94226.84;5001554;28;20046;-78
2022/04/25 04:35:09;;;;;;;34.92;9.95;;;;;;;18.05;49.71;94224.69;5001451;28;20034;-78
2022/04/25 04:37:34;;;;;;;48.55;10.02;;;;;;;18.53;48.76;94234.81;5002161;28;20030;-77
2022/04/25 04:42:44;;;;;;;44.50;9.20;;;;;;;19.72;45.17;94246.63;5006769;28;20049;-78
2022/04/25 04:45:13;;;;;;;51.28;8.75;;;;;;;20.38;43.83;94252.81;5013666;28;20049;-78
2022/04/25 04:47:40;;;;;;;45.78;9.02;;;;;;;21.12;42.31;94252.00;5012251;28;20099;-78
2022/04/25 04:50:17;;;;;;;54.17;8.48;;;;;;;21.81;40.48;94245.91;5011781;28;20044;-77
2022/04/25 04:52:43;;;;;;;41.70;8.35;;;;;;;22.55;38.64;94250.75;5002418;28;20034;-77
2022/04/25 04:55:09;;;;;;;38.47;10.48;;;;;;;23.22;37.55;94254.38;5011889;28;20052;-77
2022/04/25 04:57:34;;;;;;;31.02;10.88;;;;;;;23.90;36.00;94250.31;5011824;28;20030;-78
2022/04/25 05:00:00;;;;;;;38.47;8.82;;;;;;;24.77;34.17;94258.03;5003079;28;20049;-78
2022/04/25 05:02:25;;;;;;;33.75;8.30;;;;;;;25.46;32.39;94253.56;5002205;28;20476;-78
2022/04/25 05:04:50;;;;;;;39.72;7.70;;;;;;;26.10;31.30;94263.25;5012247;28;20099;-78
2022/04/25 05:07:16;;;;;;;34.88;6.53;;;;;;;26.67;30.10;94264.63;5014631;28;20034;-77
2022/04/25 05:09:42;;;;;;;44.60;7.38;;;;;;;27.24;29.03;94265.13;5013056;28;20041;-78
2022/04/25 05:12:09;;;;;;;34.28;7.28;;;;;;;27.82;28.31;94263.22;5003936;28;20038;-78
2022/04/25 05:14:34;;;;;;;46.03;8.25;;;;;;;28.31;27.61;94267.91;4986306;28;20046;-78
2022/04/25 05:17:00;;;;;;;44.53;6.90;;;;;;;28.98;26.42;94265.53;5002550;28;20048;-78
2022/04/25 05:19:25;;;;;;;40.47;7.22;;;;;;;29.65;25.87;94268.31;4986280;28;20457;-78
2022/04/25 05:22:17;;;;;;;30.17;6.50;;;;;;;30.35;24.19;94272.09;5011852;28;20052;-78
2022/04/25 05:24:42;;;;;;;30.70;6.78;;;;;;;31.03;23.38;94266.09;5000019;28;20042;-78
2022/04/25 05:27:08;;;;;;;39.88;6.28;;;;;;;31.62;22.55;94268.72;5011873;28;20436;-78
2022/04/25 05:29:33;;;;;;;36.15;6.63;;;;;;;31.94;21.74;94274.22;5011869;28;20038;-76
2022/04/25 05:31:58;;;;;;;33.70;5.90;;;;;;;32.73;20.80;94265.06;4985975;28;20049;-78
2022/04/25 05:34:24;;;;;;;44.63;6.13;;;;;;;33.20;20.10;94265.03;5012444;28;20142;-76
2022/04/25 05:36:50;;;;;;;38.95;7.10;;;;;;;33.30;19.90;94270.34;5011826;28;20038;-77
2022/04/25 05:39:15;;;;;;;39.67;5.30;;;;;;;33.90;18.95;94272.09;5003180;28;20038;-76
2022/04/25 05:41:45;;;;;;;38.03;6.13;;;;;;;34.38;19.05;94281.47;5011649;28;20064;-78
2022/04/25 05:44:11;;;;;;;50.65;7.18;;;;;;;34.94;18.46;94277.53;5003095;28;20044;-77
2022/04/25 05:46:36;;;;;;;36.08;6.70;;;;;;;35.51;17.82;94266.19;5000636;28;20417;-78
2022/04/25 05:52:02;;;;;;;31.75;5.63;;;;;;;35.62;17.34;94274.13;5012263;28;20060;-78
2022/04/25 05:54:28;;;;;;;40.63;7.68;;;;;;;35.72;16.99;94275.97;5018400;28;20056;-79
2022/04/25 05:56:53;;;;;;;31.63;6.03;;;;;;;36.29;17.00;94273.28;5014482;28;20598;-79
2022/04/25 05:59:19;;;;;;;31.15;6.82;;;;;;;37.04;16.90;94279.47;4999949;28;20117;-75
2022/04/25 06:01:44;;;;;;;61.13;6.70;;;;;;;37.48;15.99;94275.59;5000504;28;20419;-77
2022/04/25 06:04:10;;;;;;;38.58;6.82;;;;;;;37.54;15.75;94269.25;5000787;28;20060;-77
2022/04/25 06:06:53;;;;;;;37.45;6.47;;;;;;;37.72;15.58;94268.09;5000793;28;20084;-77
2022/04/25 06:09:20;;;;;;;27.75;6.13;;;;;;;37.63;15.62;94265.97;5002162;28;20405;-77
2022/04/25 06:11:45;;;;;;;25.42;6.47;;;;;;;37.68;15.71;94262.00;5000350;28;20044;-77
2022/04/25 06:14:11;;;;;;;35.45;6.95;;;;;;;37.50;16.17;94254.22;5000686;28;20033;-77
2022/04/25 06:16:36;;;;;;;39.20;7.57;;;;;;;36.99;16.52;94253.63;5010178;28;20025;-77
2022/04/25 06:19:02;;;;;;;31.83;6.60;;;;;;;36.38;16.78;94241.03;5000725;28;20053;-77
2022/04/25 06:21:28;;;;;;;39.53;7.97;;;;;;;35.87;17.30;94244.88;5010540;28;20564;-78
2022/04/25 06:23:53;;;;;;;46.72;7.00;;;;;;;35.26;17.87;94238.63;5017195;28;20038;-77
2022/04/25 06:26:18;;;;;;;45.20;6.80;;;;;;;34.89;18.40;94249.03;5010741;28;20121;-77
2022/04/25 06:28:44;;;;;;;36.55;6.97;;;;;;;34.53;18.53;94253.19;5002137;28;20038;-78
2022/04/25 06:31:10;;;;;;;44.65;6.95;;;;;;;34.23;19.05;94254.53;4994586;28;20091;-78
2022/04/25 06:33:35;;;;;;;41.95;7.15;;;;;;;33.85;19.18;94256.34;5007470;28;20034;-77
2022/04/25 06:36:01;;;;;;;37.17;6.80;;;;;;;33.24;19.61;94258.47;5016644;28;20038;-76
2022/04/25 06:38:26;;;;;;;36.88;7.57;;;;;;;32.23;20.76;94254.28;5005326;28;20036;-77
2022/04/25 06:40:52;;;;;;;29.65;5.88;;;;;;;31.71;21.64;94252.97;5001898;28;20064;-78
2022/04/25 06:43:17;;;;;;;34.65;6.88;;;;;;;31.04;22.32;94253.44;5012354;28;20057;-78
2022/04/25 06:45:43;;;;;;;38.65;6.55;;;;;;;30.10;23.48;94256.56;5001411;28;20048;-78
2022/04/25 06:48:08;;;;;;;32.78;6.03;;;;;;;29.29;24.73;94259.06;4984620;28;20041;-77
2022/04/25 06:50:34;;;;;;;44.25;8.55;;;;;;;28.84;25.24;94249.25;4984105;28;20069;-77
2022/04/25 06:52:59;;;;;;;32.67;6.57;;;;;;;28.51;25.49;94250.69;5000892;28;20478;-78
2022/04/25 06:55:30;;;;;;;30.75;6.55;;;;;;;28.24;26.00;94251.75;5009565;28;20030;-77
2022/04/25 06:57:56;;;;;;;51.28;7.38;;;;;;;28.21;26.15;94252.44;4985869;28;20038;-77
2022/04/25 07:00:22;;;;;;;38.13;7.70;;;;;;;27.59;26.81;94244.47;5000758;28;20042;-80
2022/04/25 07:02:48;;;;;;;35.90;7.50;;;;;;;27.26;27.37;94241.53;5009559;28;20041;-80
2022/04/25 07:05:13;;;;;;;38.80;6.90;;;;;;;27.47;27.36;94248.03;5001902;28;20578;-79
2022/04/25 07:07:39;;;;;;;37.90;7.07;;;;;;;27.27;27.40;94243.06;5001711;28;20057;-79
2022/04/25 07:10:28;;;;;;;32.30;6.90;;;;;;;27.47;27.72;94247.28;5002479;28;20061;-78
2022/04/25 07:12:56;;;;;;;40.97;6.63;;;;;;;27.80;26.80;94239.53;5011025;28;20045;-79
2022/04/25 07:15:25;;;;;;;41.75;5.90;;;;;;;28.00;26.80;94242.97;5001731;28;20065;-79
2022/04/25 07:17:55;;;;;;;33.63;6.45;;;;;;;28.13;26.44;94248.09;5011065;28;20038;-78
2022/04/25 07:20:20;;;;;;;48.30;6.50;;;;;;;28.28;26.37;94252.59;5010100;28;20038;-79
2022/04/25 07:31:15;;;;;;;34.15;6.90;;;;;;;28.65;25.64;94234.06;5003893;28;20092;-78
2022/04/25 07:33:43;;;;;;;41.05;6.55;;;;;;;28.69;24.80;94232.22;4967685;28;20038;-79
2022/04/25 07:36:15;;;;;;;38.33;6.68;;;;;;;28.60;25.33;94231.69;4998472;28;20061;-78
2022/04/25 07:38:41;;;;;;;26.48;6.00;;;;;;;28.63;25.50;94231.72;4997556;28;20104;-78
2022/04/25 07:41:07;;;;;;;48.05;6.13;;;;;;;28.61;25.07;94225.97;4996600;28;20525;-78
2022/04/25 07:43:34;;;;;;;29.80;5.10;;;;;;;28.31;21.43;94211.75;4948311;28;20068;-78
2022/04/25 07:46:00;;;;;;;41.20;5.50;;;;;;;28.22;21.66;94216.56;4996780;28;20077;-78
2022/04/25 07:48:25;;;;;;;50.13;6.72;;;;;;;28.09;22.76;94208.72;4996713;28;20038;-78
2022/04/25 07:50:51;;;;;;;48.15;5.53;;;;;;;27.69;22.70;94219.13;4998005;28;20041;-78
2022/04/25 07:53:16;;;;;;;47.42;6.00;;;;;;;27.54;23.48;94211.94;4997498;28;20042;-80
2022/04/25 07:55:42;;;;;;;47.88;6.32;;;;;;;27.24;23.33;94201.84;4984646;28;20030;-79
2022/04/25 07:58:08;;;;;;;49.63;5.97;;;;;;;27.13;23.40;94206.19;4950104;28;20552;-79
2022/04/25 08:00:35;;;;;;;45.13;5.82;;;;;;;26.96;23.14;94211.91;4981774;28;20141;-77
2022/04/25 08:03:01;;;;;;;38.85;5.75;;;;;;;26.63;23.73;94205.09;4967961;28;20061;-79
2022/04/25 08:05:26;;;;;;;39.80;5.63;;;;;;;26.59;24.20;94201.59;4998671;28;20042;-79
2022/04/25 08:07:52;;;;;;;49.05;6.45;;;;;;;26.52;23.21;94190.75;4998568;28;20042;-79
2022/04/25 08:10:17;;;;;;;41.67;5.78;;;;;;;26.47;22.94;94194.47;4986497;28;20060;-80
2022/04/25 08:18:13;;;;;;;55.85;6.78;;;;;;;26.53;23.16;94205.66;5003100;28;20046;-81
2022/04/25 08:20:39;;;;;;;63.67;6.85;;;;;;;26.17;23.46;94186.13;5006646;28;20050;-75
2022/04/25 08:23:10;;;;;;;36.85;6.18;;;;;;;25.82;23.38;94178.06;5003420;28;20049;-81
2022/04/25 08:25:36;;;;;;;42.92;6.18;;;;;;;25.64;23.97;94176.81;4958282;28;20050;-84
2022/04/25 08:28:02;;;;;;;37.92;5.15;;;;;;;25.61;23.92;94185.50;4972933;28;20034;-82
2022/04/25 08:30:28;;;;;;;43.17;5.90;;;;;;;25.56;24.81;94180.44;5010591;28;20057;-83
2022/04/25 08:32:55;;;;;;;49.85;5.82;;;;;;;25.58;24.12;94189.63;4998698;28;20505;-81
2022/04/25 08:35:21;;;;;;;38.92;5.20;;;;;;;25.49;23.69;94186.31;5015433;28;20036;-81
2022/04/25 08:37:46;;;;;;;41.03;6.00;;;;;;;25.37;24.11;94183.72;5014897;28;20129;-81
2022/04/25 08:40:12;;;;;;;48.70;6.93;;;;;;;25.14;24.58;94176.28;5014880;28;20022;-81
2022/04/25 08:42:37;;;;;;;71.82;7.20;;;;;;;25.04;24.63;94183.97;5005574;28;20060;-81
2022/04/25 08:48:03;;;;;;;28.92;5.30;;;;;;;24.93;24.83;94186.31;5087967;23;20045;-80
2022/04/25 08:50:29;;;;;;;39.50;4.88;;;;;;;24.99;24.63;94182.28;5014825;28;20080;-80
2022/04/25 08:52:55;;;;;;;35.10;4.82;;;;;;;25.00;24.42;94180.44;5015460;28;20113;-80
2022/04/25 08:55:21;;;;;;;46.47;5.05;;;;;;;24.82;24.55;94179.91;5015912;28;20033;-80
2022/04/25 08:57:48;;;;;;;49.40;4.90;;;;;;;24.82;23.94;94177.25;5015386;28;20037;-80
2022/04/25 09:00:15;;;;;;;35.33;4.05;;;;;;;24.80;24.26;94161.63;4997226;28;20041;-80
2022/04/25 09:02:40;;;;;;;38.35;4.57;;;;;;;24.58;24.42;94162.16;4997838;28;20038;-80
2022/04/25 09:05:09;;;;;;;36.90;4.40;;;;;;;24.44;24.69;94159.84;5021553;28;20037;-80
2022/04/25 09:07:35;;;;;;;40.05;5.20;;;;;;;24.40;24.28;94161.59;4996944;28;20034;-80
2022/04/25 09:10:02;;;;;;;37.22;5.20;;;;;;;24.36;24.42;94163.38;4980957;28;20101;-80
2022/04/25 09:12:27;;;;;;;42.53;5.47;;;;;;;24.44;24.77;94157.19;5013205;28;20124;-80
2022/04/25 09:14:53;;;;;;;38.75;5.40;;;;;;;24.45;24.86;94161.38;5014291;28;20053;-80
2022/04/25 09:17:19;;;;;;;40.55;4.28;;;;;;;24.38;24.64;94155.84;5013431;28;20526;-80
2022/04/25 09:19:45;;;;;;;25.77;4.75;;;;;;;24.41;25.46;94147.22;5013425;28;20049;-80
2022/04/25 09:22:12;;;;;;;37.13;5.00;;;;;;;24.41;24.43;94138.47;5014490;28;20025;-80
2022/04/25 09:24:44;;;;;;;38.45;4.05;;;;;;;24.42;23.79;94151.44;5013448;28;20038;-80
2022/04/25 09:27:18;;;;;;;29.20;4.28;;;;;;;24.43;24.00;94142.34;5013549;28;20026;-80
2022/04/25 09:29:43;;;;;;;32.47;4.47;;;;;;;24.23;23.71;94129.91;5014483;28;20414;-82
2022/04/25 09:32:13;;;;;;;30.48;5.28;;;;;;;24.14;21.93;94146.00;5013413;28;20087;-82
2022/04/25 09:37:41;;;;;;;27.55;3.95;;;;;;;24.19;21.66;94151.06;4998530;28;20139;-80
2022/04/25 09:40:08;;;;;;;49.38;4.78;;;;;;;24.19;20.70;94148.41;5014483;28;20042;-80
2022/04/25 09:42:33;;;;;;;38.03;4.60;;;;;;;24.35;21.08;94151.19;5014763;28;20054;-80
2022/04/25 09:44:59;;;;;;;41.25;4.88;;;;;;;24.49;22.45;94140.22;5013754;28;20391;-80
2022/04/25 09:47:34;;;;;;;40.03;4.40;;;;;;;24.60;21.89;94136.00;4996113;28;20037;-81
2022/04/25 09:50:08;;;;;;;45.17;4.30;;;;;;;24.49;21.97;94140.22;5013796;28;20042;-80
2022/04/25 09:53:04;;;;;;;28.30;4.00;;;;;;;24.44;21.59;94145.78;5013781;28;20107;-79
2022/04/25 09:55:55;;;;;;;32.45;4.30;;;;;;;24.43;21.59;94129.06;5006115;28;20424;-81
2022/04/25 09:58:22;;;;;;;23.05;4.10;;;;;;;24.41;21.48;94118.00;5029151;28;20103;-81
2022/04/25 10:00:49;;;;;;;40.95;4.65;;;;;;;24.27;21.60;94138.78;5014460;28;20037;-82
2022/04/25 10:03:16;;;;;;;41.95;4.40;;;;;;;24.30;22.21;94127.53;5014334;28;20038;-79
2022/04/25 10:05:46;;;;;;;37.50;4.47;;;;;;;24.47;22.67;94131.81;5021579;28;20038;-81
2022/04/25 10:08:13;;;;;;;28.75;5.20;;;;;;;24.63;22.39;94126.56;5027858;28;20036;-79
2022/04/25 10:10:46;;;;;;;30.10;5.38;;;;;;;24.82;22.69;94126.72;5022352;28;20038;-81
2022/04/25 10:13:11;;;;;;;40.15;4.60;;;;;;;24.95;21.67;94122.91;4997227;28;20069;-81
2022/04/25 10:15:41;;;;;;;47.60;4.75;;;;;;;25.06;22.05;94121.34;4997002;28;20141;-81
2022/04/25 10:18:07;;;;;;;47.70;4.25;;;;;;;25.10;20.68;94111.56;5021858;28;20040;-81
2022/04/25 10:20:57;;;;;;;47.38;5.05;;;;;;;25.02;19.41;94117.03;5013759;28;20468;-81
2022/04/25 10:23:24;;;;;;;29.67;3.47;;;;;;;25.08;19.41;94097.84;5014254;28;20038;-81
2022/04/25 10:26:15;;;;;;;38.30;4.70;;;;;;;25.07;19.91;94101.63;5013893;28;20586;-81
2022/04/25 10:28:46;;;;;;;47.38;3.08;;;;;;;24.90;19.28;94106.44;5018460;28;20049;-81
2022/04/25 10:31:21;;;;;;;58.78;4.28;;;;;;;24.93;19.65;94109.19;5013622;28;20029;-81
2022/04/25 10:34:14;;;;;;;31.73;3.85;;;;;;;25.01;20.19;94102.94;4997035;28;20046;-81
2022/04/25 10:36:39;;;;;;;34.65;4.07;;;;;;;25.00;20.69;94105.97;5014241;28;20033;-81
2022/04/25 10:39:20;;;;;;;24.55;4.55;;;;;;;25.16;21.59;94088.13;5032019;28;20038;-79
2022/04/25 10:44:44;;;;;;;29.58;4.25;;;;;;;25.37;18.49;94109.19;5020989;28;20052;-82
2022/04/25 10:47:20;;;;;;;37.27;4.83;;;;;;;25.59;19.22;94097.97;5013891;28;20042;-81
2022/04/25 10:49:56;;;;;;;40.75;4.55;;;;;;;25.65;18.99;94104.56;5012627;28;20708;-81
2022/04/25 10:52:37;;;;;;;29.65;4.05;;;;;;;25.73;19.41;94106.34;5029159;28;20509;-81
2022/04/25 10:55:19;;;;;;;33.10;3.55;;;;;;;25.86;19.93;94109.66;5018480;28;20077;-81
2022/04/25 10:58:03;;;;;;;16.23;3.65;;;;;;;25.85;18.37;94104.69;5020982;28;20030;-81
2022/04/25 11:00:41;;;;;;;24.50;3.50;;;;;;;25.88;18.42;94122.66;5022501;28;20030;-81
2022/04/25 11:03:14;;;;;;;36.13;3.75;;;;;;;26.04;19.34;94126.09;5029217;28;20042;-81
2022/04/25 11:05:44;;;;;;;31.92;3.78;;;;;;;26.21;18.50;94120.38;5020034;28;20041;-82
2022/04/25 11:08:15;;;;;;;38.58;4.35;;;;;;;26.38;18.71;94111.25;5018138;28;20029;-81
2022/04/25 11:10:59;;;;;;;27.92;3.45;;;;;;;26.49;19.03;94104.22;5020340;28;20034;-81
2022/04/25 11:13:26;;;;;;;30.95;4.50;;;;;;;26.34;21.74;94124.44;5003713;28;20034;-80
2022/04/25 11:15:53;;;;;;;22.40;3.13;;;;;;;26.36;22.45;94120.69;5014908;28;20493;-81
2022/04/25 11:18:30;;;;;;;21.60;3.35;;;;;;;26.03;22.61;94124.50;5013927;28;20512;-81
2022/04/25 11:21:02;;;;;;;18.67;3.70;;;;;;;26.29;21.70;94132.72;5023086;28;20074;-81
2022/04/25 11:23:30;;;;;;;27.15;3.72;;;;;;;26.41;20.47;94128.44;5018185;28;20038;-81
2022/04/25 11:25:55;;;;;;;21.50;3.47;;;;;;;26.41;18.66;94123.88;5015008;28;20049;-80
2022/04/25 11:28:21;;;;;;;26.40;2.90;;;;;;;26.36;21.36;94131.34;4995860;28;20150;-81
2022/04/25 11:31:12;;;;;;;14.65;2.67;;;;;;;26.03;21.23;94132.50;5013687;28;20033;-80
2022/04/25 11:33:44;;;;;;;19.80;3.03;;;;;;;25.69;20.99;94126.75;5024055;28;20468;-81
2022/04/25 11:36:11;;;;;;;;;;;;;;;25.55;21.05;94125.63;5012080;28;20049;-81
2022/04/25 11:41:30;;;;;;;23.88;2.60;;;;;;;25.69;19.42;94132.09;5014509;28;20057;-81
2022/04/25 11:43:57;;;;;;;23.08;2.95;;;;;;;25.75;19.02;94123.88;5013357;28;20048;-82
2022/04/25 11:46:26;;;;;;;22.95;2.95;;;;;;;25.90;19.45;94133.75;5012834;28;20045;-81
2022/04/25 11:48:52;;;;;;;29.83;3.08;;;;;;;26.12;16.95;94119.00;5091600;23;20566;-80
2022/04/25 11:51:24;;;;;;;23.65;3.38;;;;;;;26.31;17.40;94113.72;5016215;28;20045;-80
2022/04/25 11:53:57;;;;;;;;;;;;;;;26.46;17.51;94109.50;5017552;28;20064;-80
2022/04/25 11:56:22;;;;;;;19.27;3.15;;;;;;;26.42;16.46;94108.66;5017621;28;19921;-81
2022/04/25 11:58:49;;;;;;;16.45;2.78;;;;;;;26.31;19.13;94125.16;5014811;28;20080;-80
2022/04/25 12:01:35;;;;;;;15.25;2.50;;;;;;;26.31;17.01;94116.38;5014916;28;20413;-81
2022/04/25 12:04:20;;;;;;;12.70;3.20;;;;;;;26.25;16.56;94125.78;5000218;28;20138;-81
2022/04/25 12:07:11;;;;;;;20.88;2.50;;;;;;;26.11;16.27;94110.25;5015956;28;20057;-80